createdAt,value
2024-01-12T00:02:31.407Z,41.58389261744966
2024-01-12T00:09:11.556Z,41.919463087248324
2024-01-12T00:12:32.149Z,44.241610738255034
2024-01-12T00:15:53.555Z,44.18120805369127
2024-01-12T00:19:14.274Z,43.48322147651007
2024-01-12T00:22:34.903Z,44.671140939597315
2024-01-12T00:25:56.584Z,45.83892617449664
2024-01-12T00:29:22.555Z,44.02684563758389
2024-01-12T00:32:44.094Z,44.18120805369127
2024-01-12T00:36:04.947Z,44.375838926174495
2024-01-12T00:42:14.421Z,45.33557046979866
2024-01-12T00:45:35.212Z,44.18120805369127
2024-01-12T00:48:55.739Z,45.006711409395976
2024-01-12T00:52:17.430Z,43.87919463087248
2024-01-12T00:55:38.195Z,43.12080536912752
2024-01-12T00:58:59.804Z,43.40268456375839
2024-01-12T01:02:20.515Z,43.61073825503356
2024-01-12T01:06:54.161Z,42.758389261744966
2024-01-12T01:10:14.393Z,40.51677852348993
2024-01-12T01:13:35.081Z,41.758389261744966
2024-01-12T01:19:56.906Z,42.40939597315436
2024-01-12T01:23:17.590Z,41.738255033557046
2024-01-12T01:26:38.524Z,43.02684563758389
2024-01-12T01:29:59.761Z,42.006711409395976
2024-01-12T01:33:20.115Z,41.04697986577181
2024-01-12T01:36:40.937Z,41.67785234899329
2024-01-12T01:40:01.884Z,42.24832214765101
2024-01-12T01:48:46.221Z,42.63758389261745
2024-01-12T01:52:06.657Z,43.02684563758389
2024-01-12T01:55:27.467Z,41.40268456375839
2024-01-12T02:01:54.135Z,38.214765100671144
2024-01-12T02:05:14.828Z,38.738255033557046
2024-01-12T02:10:24.894Z,36.33557046979866
2024-01-12T02:13:46.225Z,38.006711409395976
2024-01-12T02:18:08.524Z,35.711409395973156
2024-01-12T02:21:28.956Z,37.79865771812081
2024-01-12T02:24:50.280Z,36.70469798657718
2024-01-12T02:28:10.675Z,37.281879194630875
2024-01-12T02:31:31.787Z,39.77852348993289
2024-01-12T02:34:54.230Z,42.89261744966443
2024-01-12T02:38:14.340Z,45.630872483221474
2024-01-12T02:41:34.409Z,47.147651006711406
2024-01-12T02:44:56.682Z,49.52348993288591
2024-01-12T02:48:17.106Z,55.43624161073826
2024-01-12T02:51:37.135Z,55.04697986577181
2024-01-12T02:54:58.239Z,52.18791946308725
2024-01-12T02:58:18.538Z,44.61073825503356
2024-01-12T03:01:38.752Z,41.56375838926174
2024-01-12T03:08:43.638Z,31.691275167785236
2024-01-12T03:12:04.458Z,28.100671140939596
2024-01-12T03:18:09.840Z,25.154362416107382
2024-01-12T03:21:30.377Z,23.322147651006713
2024-01-12T03:24:50.872Z,22.583892617449663
2024-01-12T03:28:24.968Z,21.97986577181208
2024-01-12T03:31:46.305Z,23.013422818791945
2024-01-12T03:35:06.585Z,22.375838926174495
2024-01-12T03:38:26.694Z,22.22818791946309
2024-01-12T03:41:47.300Z,24.48993288590604
2024-01-12T03:45:07.930Z,25.536912751677853
2024-01-12T03:48:28.962Z,23.74496644295302
2024-01-12T03:51:50.318Z,25.536912751677853
2024-01-12T03:55:10.494Z,22.926174496644297
2024-01-12T03:58:31.501Z,24.85234899328859
2024-01-12T04:01:52.126Z,25.026845637583893
2024-01-12T04:05:12.920Z,26.91946308724832
2024-01-12T04:08:33.291Z,28.013422818791945
2024-01-12T04:11:54.478Z,24.818791946308725
2024-01-12T04:17:22.593Z,27.644295302013422
2024-01-12T04:20:43.767Z,27.61744966442953
2024-01-12T04:24:04.409Z,30.08724832214765
2024-01-12T04:27:25.087Z,31.838926174496645
2024-01-12T04:31:20.826Z,31.19463087248322
2024-01-12T04:34:41.462Z,32.46308724832215
2024-01-12T04:38:01.902Z,28.966442953020135
2024-01-12T04:41:22.591Z,29.114093959731544
2024-01-12T04:44:43.796Z,29.825503355704697
2024-01-12T04:50:55.838Z,29.416107382550337
2024-01-12T04:54:15.982Z,30.114093959731544
2024-01-12T04:57:36.393Z,29.892617449664428
2024-01-12T05:00:57.225Z,30.34228187919463
2024-01-12T05:04:17.952Z,30.590604026845636
2024-01-12T05:09:44.344Z,31.328859060402685
2024-01-12T05:13:04.968Z,31.22818791946309
2024-01-12T05:16:26.415Z,33.288590604026844
2024-01-12T05:19:46.652Z,32.308724832214764
2024-01-12T05:23:08.104Z,30.93288590604027
2024-01-12T05:26:28.990Z,29.2751677852349
2024-01-12T05:29:50.952Z,28.40268456375839
2024-01-12T05:33:11.763Z,29.711409395973153
2024-01-12T05:37:55.381Z,28.469798657718123
2024-01-12T05:41:15.828Z,29.677852348993287
2024-01-12T05:44:36.827Z,29.120805369127517
2024-01-12T05:47:58.259Z,26.758389261744966
2024-01-12T05:51:19.209Z,26.0
2024-01-12T05:54:40.129Z,24.85234899328859
2024-01-12T05:58:00.775Z,21.174496644295303
2024-01-12T06:01:21.619Z,18.154362416107382
2024-01-12T06:04:42.057Z,16.476510067114095
2024-01-12T06:08:02.433Z,16.697986577181208
2024-01-12T06:11:22.765Z,16.885906040268456
2024-01-12T06:14:43.486Z,13.85234899328859
2024-01-12T06:18:04.115Z,16.29530201342282
2024-01-12T06:22:49.417Z,25.778523489932887
2024-01-12T06:26:09.106Z,32.147651006711406
2024-01-12T06:29:29.090Z,21.671140939597315
2024-01-12T06:34:04.945Z,12.570469798657719
2024-01-12T06:37:25.545Z,12.348993288590604
2024-01-12T06:42:41.360Z,17.40268456375839
2024-01-12T06:46:02.252Z,22.42281879194631
2024-01-12T06:49:22.239Z,14.63758389261745
2024-01-12T06:52:43.453Z,15.677852348993289
2024-01-12T06:56:03.537Z,23.013422818791945
2024-01-12T07:01:18.533Z,13.208053691275168
2024-01-12T07:04:39.173Z,14.664429530201343
2024-01-12T07:08:00.437Z,15.0
2024-01-12T07:14:35.768Z,16.13422818791946
2024-01-12T07:17:57.264Z,16.78523489932886
2024-01-12T07:21:18.256Z,19.691275167785236
2024-01-12T07:24:38.960Z,19.22818791946309
2024-01-12T07:27:59.755Z,21.140939597315437
2024-01-12T07:31:20.568Z,20.375838926174495
2024-01-12T07:34:41.837Z,20.36241610738255
2024-01-12T07:38:01.971Z,22.583892617449663
2024-01-12T07:41:22.609Z,24.677852348993287
2024-01-12T07:44:43.265Z,25.348993288590606
2024-01-12T07:48:04.129Z,28.02013422818792
2024-01-12T07:51:24.251Z,27.02013422818792
2024-01-12T07:57:34.634Z,29.28187919463087
2024-01-12T08:00:56.061Z,30.073825503355703
2024-01-12T08:05:39.164Z,30.503355704697988
2024-01-12T08:09:00.196Z,29.70469798657718
2024-01-12T08:15:25.643Z,30.22818791946309
2024-01-12T08:18:46.865Z,31.671140939597315
2024-01-12T08:22:13.299Z,31.093959731543624
2024-01-12T08:26:02.605Z,34.76510067114094
2024-01-12T08:29:23.912Z,33.31543624161074
2024-01-12T08:32:45.826Z,32.45637583892618
2024-01-12T08:36:06.066Z,31.563758389261746
2024-01-12T08:39:26.498Z,30.751677852348994
2024-01-12T08:42:47.734Z,28.973154362416107
2024-01-12T08:46:08.309Z,29.604026845637584
2024-01-12T08:49:29.344Z,30.201342281879196
2024-01-12T08:52:51.382Z,29.630872483221477
2024-01-12T08:56:12.603Z,29.026845637583893
2024-01-12T08:59:35.087Z,31.758389261744966
2024-01-12T09:02:54.853Z,31.25503355704698
2024-01-12T09:06:16.112Z,28.61744966442953
2024-01-12T09:09:37.053Z,29.731543624161073
2024-01-12T09:12:58.044Z,31.476510067114095
2024-01-12T09:16:18.587Z,29.36241610738255
2024-01-12T09:22:33.934Z,31.463087248322147
2024-01-12T09:25:55.624Z,28.993288590604028
2024-01-12T09:29:17.135Z,29.818791946308725
2024-01-12T09:32:41.996Z,28.409395973154364
2024-01-12T09:36:06.499Z,33.31543624161074
2024-01-12T09:39:28.127Z,32.74496644295302
2024-01-12T09:42:54.487Z,33.5503355704698
2024-01-12T09:46:14.323Z,35.11409395973154
2024-01-12T09:49:34.366Z,35.395973154362416
2024-01-12T09:52:55.530Z,34.47651006711409
2024-01-12T09:58:44.356Z,35.899328859060404
2024-01-12T10:02:06.247Z,34.20805369127517
2024-01-12T10:05:26.819Z,34.1744966442953
2024-01-12T10:11:21.584Z,36.308724832214764
2024-01-12T10:14:42.453Z,34.986577181208055
2024-01-12T10:18:02.669Z,35.080536912751676
2024-01-12T10:21:24.181Z,32.90604026845637
2024-01-12T10:24:45.101Z,35.13422818791946
2024-01-12T10:28:05.486Z,35.16107382550336
2024-01-12T10:31:26.603Z,37.100671140939596
2024-01-12T10:34:47.854Z,34.88590604026846
2024-01-12T10:38:08.104Z,34.20805369127517
2024-01-12T10:41:28.941Z,34.651006711409394
2024-01-12T10:44:49.420Z,35.060402684563755
2024-01-12T10:48:10.200Z,36.74496644295302
2024-01-12T10:53:37.985Z,37.711409395973156
2024-01-12T10:58:20.110Z,35.97986577181208
2024-01-12T11:01:41.587Z,38.06711409395973
2024-01-12T11:05:02.857Z,41.43624161073826
2024-01-12T11:08:23.532Z,38.65771812080537
2024-01-12T11:11:44.410Z,36.42953020134228
2024-01-12T11:15:04.853Z,37.241610738255034
2024-01-12T11:18:25.478Z,35.69798657718121
2024-01-12T11:24:30.510Z,33.97986577181208
2024-01-12T11:27:51.520Z,33.61744966442953
2024-01-12T11:31:12.415Z,31.583892617449663
2024-01-12T11:37:25.368Z,31.892617449664428
2024-01-12T11:40:46.398Z,30.12751677852349
2024-01-12T11:44:06.678Z,26.77181208053691
2024-01-12T11:47:27.327Z,24.986577181208055
2024-01-12T11:50:47.892Z,24.70469798657718
2024-01-12T11:54:08.056Z,24.610738255033556
2024-01-12T11:57:28.482Z,24.23489932885906
2024-01-12T12:00:49.506Z,21.906040268456376
2024-01-12T12:04:10.692Z,22.838926174496645
2024-01-12T12:07:31.562Z,20.161073825503355
2024-01-12T12:10:52.741Z,21.731543624161073
2024-01-12T12:14:12.810Z,22.818791946308725
2024-01-12T12:20:48.291Z,21.758389261744966
2024-01-12T12:24:12.349Z,22.14765100671141
2024-01-12T12:27:33.469Z,22.19463087248322
2024-01-12T12:32:08.820Z,22.59731543624161
2024-01-12T12:35:29.682Z,21.19463087248322
2024-01-12T12:38:51.076Z,18.79194630872483
2024-01-12T12:45:48.544Z,21.986577181208055
2024-01-12T12:49:09.509Z,19.308724832214764
2024-01-12T12:52:30.031Z,17.973154362416107
2024-01-12T12:55:51.260Z,18.630872483221477
2024-01-12T12:59:12.158Z,18.28187919463087
2024-01-12T13:02:32.559Z,18.44295302013423
2024-01-12T13:05:53.690Z,18.006711409395972
2024-01-12T13:09:13.658Z,17.51006711409396
2024-01-12T13:14:54.924Z,18.355704697986578
2024-01-12T13:18:15.369Z,17.355704697986578
2024-01-12T13:21:35.935Z,16.315436241610737
2024-01-12T13:24:57.467Z,15.275167785234899
2024-01-12T13:28:17.869Z,16.711409395973153
2024-01-12T13:31:39.133Z,16.44295302013423
2024-01-12T13:34:59.895Z,17.328859060402685
2024-01-12T13:41:33.029Z,20.87248322147651
2024-01-12T13:44:53.862Z,34.442953020134226
2024-01-12T13:50:26.788Z,26.798657718120804
2024-01-12T13:53:49.262Z,20.97986577181208
2024-01-12T13:57:10.351Z,22.23489932885906
2024-01-12T14:00:30.856Z,88.22818791946308
2024-01-12T14:03:52.067Z,62.79865771812081
2024-01-12T14:07:12.925Z,45.77181208053691
2024-01-12T14:11:57.607Z,38.711409395973156
2024-01-12T14:15:17.689Z,40.68456375838926
2024-01-12T14:18:38.587Z,30.25503355704698
2024-01-12T14:25:12.377Z,18.06711409395973
2024-01-12T14:28:35.547Z,38.50335570469799
2024-01-12T14:34:42.996Z,42.20134228187919
2024-01-12T14:38:03.165Z,32.80536912751678
2024-01-12T14:45:04.568Z,24.664429530201343
2024-01-12T14:51:16.293Z,38.40939597315436
2024-01-12T14:54:37.877Z,46.04026845637584
2024-01-12T15:00:11.536Z,26.543624161073826
2024-01-12T15:03:32.448Z,47.23489932885906
2024-01-12T15:06:53.209Z,26.29530201342282
2024-01-12T15:10:13.199Z,25.389261744966444
2024-01-12T15:13:33.839Z,48.16107382550336
2024-01-12T15:16:54.904Z,23.288590604026847
2024-01-12T15:20:15.222Z,18.993288590604028
2024-01-12T15:23:35.550Z,42.33557046979866
2024-01-12T15:27:01.413Z,37.19463087248322
2024-01-12T15:30:21.692Z,23.845637583892618
2024-01-12T15:33:42.515Z,30.20805369127517
2024-01-12T15:37:02.917Z,30.416107382550337
2024-01-12T15:40:23.525Z,14.859060402684564
2024-01-12T15:43:43.699Z,12.832214765100671
2024-01-12T15:47:04.407Z,11.21476510067114
2024-01-12T15:50:24.930Z,9.899328859060402
2024-01-12T15:53:45.626Z,11.798657718120806
2024-01-12T15:57:07.401Z,10.395973154362416
2024-01-12T16:00:28.049Z,12.818791946308725
2024-01-12T16:03:48.775Z,11.557046979865772
2024-01-12T16:07:09.309Z,12.805369127516778
2024-01-12T16:10:29.630Z,11.194630872483222
2024-01-12T16:13:50.949Z,10.161073825503356
2024-01-12T16:17:11.245Z,9.771812080536913
2024-01-12T16:20:31.456Z,11.167785234899329
2024-01-12T16:23:52.006Z,10.020134228187919
2024-01-12T16:27:12.503Z,10.61744966442953
2024-01-12T16:30:32.782Z,12.550335570469798
2024-01-12T16:33:53.745Z,16.2751677852349
2024-01-12T16:37:14.834Z,15.342281879194632
2024-01-12T16:40:35.118Z,16.61744966442953
2024-01-12T16:43:56.691Z,16.906040268456376
2024-01-12T16:47:18.702Z,16.38255033557047
2024-01-12T16:50:39.043Z,13.912751677852349
2024-01-12T16:53:59.903Z,12.899328859060402
2024-01-12T16:57:20.087Z,12.328859060402685
2024-01-12T17:02:46.287Z,12.550335570469798
2024-01-12T17:06:06.850Z,14.006711409395972
2024-01-12T17:13:23.313Z,16.651006711409394
2024-01-12T17:18:33.019Z,13.946308724832214
2024-01-12T17:21:55.018Z,14.966442953020135
2024-01-12T17:25:15.462Z,14.228187919463087
2024-01-12T17:28:35.412Z,14.583892617449665
2024-01-12T17:31:56.376Z,13.281879194630873
2024-01-12T17:35:16.641Z,12.006711409395972
2024-01-12T17:38:36.567Z,14.946308724832214
2024-01-12T17:41:57.869Z,21.798657718120804
2024-01-12T17:45:59.090Z,18.86577181208054
2024-01-12T17:49:19.473Z,14.838926174496644
2024-01-12T17:52:41.271Z,13.818791946308725
2024-01-12T17:57:03.728Z,12.912751677852349
2024-01-12T18:00:24.052Z,15.610738255033556
2024-01-12T18:03:45.073Z,11.516778523489933
2024-01-12T18:07:06.507Z,12.644295302013424
2024-01-12T18:10:26.997Z,12.456375838926174
2024-01-12T18:16:34.717Z,19.34228187919463
2024-01-12T18:20:17.063Z,44.1744966442953
2024-01-12T18:23:37.665Z,26.78523489932886
2024-01-12T18:26:59.066Z,20.114093959731544
2024-01-12T18:30:20.253Z,19.684563758389263
2024-01-12T18:36:40.447Z,13.013422818791947
2024-01-12T18:40:01.503Z,13.268456375838927
2024-01-12T18:43:22.484Z,13.516778523489933
2024-01-12T18:46:43.088Z,14.496644295302014
2024-01-12T18:50:04.422Z,16.261744966442954
2024-01-12T18:53:25.201Z,15.825503355704697
2024-01-12T18:56:46.270Z,16.006711409395972
2024-01-12T19:00:06.917Z,16.315436241610737
2024-01-12T19:03:29.473Z,13.463087248322148
2024-01-12T19:06:50.229Z,16.046979865771814
2024-01-12T19:10:10.427Z,15.791946308724832
2024-01-12T19:13:30.486Z,15.812080536912752
2024-01-12T19:17:48.286Z,24.57718120805369
2024-01-12T19:21:08.711Z,29.85234899328859
2024-01-12T19:24:29.404Z,17.738255033557046
2024-01-12T19:27:50.419Z,15.48993288590604
2024-01-12T19:31:10.977Z,15.624161073825503
2024-01-12T19:34:31.811Z,17.348993288590606
2024-01-12T19:37:52.533Z,16.65771812080537
2024-01-12T19:41:13.017Z,17.16778523489933
2024-01-12T19:44:33.371Z,14.818791946308725
2024-01-12T19:47:53.941Z,13.302013422818792
2024-01-12T19:51:14.827Z,14.798657718120806
2024-01-12T19:54:35.526Z,12.536912751677852
2024-01-12T19:57:57.991Z,12.0
2024-01-12T20:01:18.863Z,13.06711409395973
2024-01-12T20:04:46.775Z,13.59731543624161
2024-01-12T20:08:08.498Z,12.919463087248323
2024-01-12T20:11:29.851Z,10.926174496644295
2024-01-12T20:14:52.561Z,11.89261744966443
2024-01-12T20:18:13.671Z,11.738255033557047
2024-01-12T20:21:35.204Z,13.25503355704698
2024-01-12T20:24:57.044Z,11.342281879194632
2024-01-12T20:28:18.072Z,11.422818791946309
2024-01-12T20:32:35.078Z,13.570469798657719
2024-01-12T20:35:56.614Z,11.93288590604027
2024-01-12T20:40:39.375Z,13.348993288590604
2024-01-12T20:44:00.820Z,12.140939597315436
2024-01-12T20:47:21.142Z,12.724832214765101
2024-01-12T20:50:42.294Z,11.187919463087248
2024-01-12T20:54:02.879Z,11.570469798657719
2024-01-12T20:57:23.951Z,11.25503355704698
2024-01-12T21:00:44.708Z,10.060402684563758
2024-01-12T21:04:06.006Z,9.449664429530202
2024-01-12T21:07:27.319Z,9.416107382550335
2024-01-12T21:10:48.698Z,8.825503355704697
2024-01-12T21:14:09.857Z,8.778523489932885
2024-01-12T21:17:30.822Z,8.302013422818792
2024-01-12T21:26:56.659Z,7.7114093959731544
2024-01-12T21:30:17.885Z,7.516778523489933
2024-01-12T21:35:47.750Z,7.120805369127517
2024-01-12T21:39:08.862Z,7.684563758389261
2024-01-12T21:42:34.674Z,7.3624161073825505
2024-01-12T21:45:55.684Z,6.859060402684563
2024-01-12T21:49:16.668Z,7.228187919463087
2024-01-12T21:52:37.855Z,8.449664429530202
2024-01-12T21:58:56.530Z,8.516778523489933
2024-01-12T22:02:17.440Z,8.087248322147651
2024-01-12T22:05:38.036Z,8.503355704697986
2024-01-12T22:08:59.373Z,8.691275167785236
2024-01-12T22:15:16.122Z,7.953020134228188
2024-01-12T22:18:36.883Z,8.899328859060402
2024-01-12T22:23:55.330Z,10.12751677852349
2024-01-12T22:27:26.856Z,11.187919463087248
